sensor_id;sensor_type;location;lat;lon;timestamp;pressure;altitude;pressure_sealevel;temperature;humidity
78383;BME280;67668;52.294;4.692;2023-05-01T00:04:08;101923.75;;;14.80;54.42
78383;BME280;67668;52.294;4.692;2023-05-01T00:06:34;101918.28;;;14.72;54.06
78383;BME280;67668;52.294;4.692;2023-05-01T00:08:59;101921.38;;;14.68;55.04
78383;BME280;67668;52.294;4.692;2023-05-01T00:11:25;101917.59;;;14.61;54.83
78383;BME280;67668;52.294;4.692;2023-05-01T00:13:50;101919.53;;;14.59;55.66
78383;BME280;67668;52.294;4.692;2023-05-01T00:16:16;101920.69;;;14.56;56.02
78383;BME280;67668;52.294;4.692;2023-05-01T00:18:42;101910.19;;;14.55;55.88
78383;BME280;67668;52.294;4.692;2023-05-01T00:21:08;101916.47;;;14.54;56.31
78383;BME280;67668;52.294;4.692;2023-05-01T00:23:34;101908.91;;;14.49;54.98
78383;BME280;67668;52.294;4.692;2023-05-01T00:25:59;101904.81;;;14.45;54.81
78383;BME280;67668;52.294;4.692;2023-05-01T00:28:25;101898.97;;;14.41;55.01
78383;BME280;67668;52.294;4.692;2023-05-01T00:30:52;101899.22;;;14.38;55.78
78383;BME280;67668;52.294;4.692;2023-05-01T00:33:17;101898.81;;;14.33;55.27
78383;BME280;67668;52.294;4.692;2023-05-01T00:35:43;101893.59;;;14.32;55.24
78383;BME280;67668;52.294;4.692;2023-05-01T00:38:09;101883.78;;;14.23;54.48
78383;BME280;67668;52.294;4.692;2023-05-01T00:40:43;101887.28;;;14.23;55.27
78383;BME280;67668;52.294;4.692;2023-05-01T00:43:09;101884.06;;;14.20;55.52
78383;BME280;67668;52.294;4.692;2023-05-01T00:45:36;101879.72;;;14.19;55.91
78383;BME280;67668;52.294;4.692;2023-05-01T00:48:02;101879.88;;;14.17;56.58
78383;BME280;67668;52.294;4.692;2023-05-01T00:50:28;101874.66;;;14.16;56.13
78383;BME280;67668;52.294;4.692;2023-05-01T00:52:53;101869.34;;;14.16;56.78
78383;BME280;67668;52.294;4.692;2023-05-01T00:55:19;101872.84;;;14.16;56.95
78383;BME280;67668;52.294;4.692;2023-05-01T00:57:45;101861.50;;;14.14;56.58
78383;BME280;67668;52.294;4.692;2023-05-01T01:00:11;101866.13;;;14.12;56.39
78383;BME280;67668;52.294;4.692;2023-05-01T01:02:37;101852.25;;;14.09;56.53
78383;BME280;67668;52.294;4.692;2023-05-01T01:05:03;101850.00;;;14.04;54.98
78383;BME280;67668;52.294;4.692;2023-05-01T01:07:45;101852.81;;;14.03;56.16
78383;BME280;67668;52.294;4.692;2023-05-01T01:16:11;101832.22;;;13.95;55.50
78383;BME280;67668;52.294;4.692;2023-05-01T01:21:17;101823.97;;;13.88;55.55
78383;BME280;67668;52.294;4.692;2023-05-01T01:29:46;101811.91;;;13.84;56.23
78383;BME280;67668;52.294;4.692;2023-05-01T01:32:48;101808.53;;;13.82;57.17
78383;BME280;67668;52.294;4.692;2023-05-01T01:35:24;101804.31;;;13.80;57.21
78383;BME280;67668;52.294;4.692;2023-05-01T01:37:56;101797.03;;;13.72;55.17
78383;BME280;67668;52.294;4.692;2023-05-01T01:40:32;101791.13;;;13.69;56.93
78383;BME280;67668;52.294;4.692;2023-05-01T01:43:02;101787.78;;;13.67;56.60
78383;BME280;67668;52.294;4.692;2023-05-01T01:45:33;101782.75;;;13.64;55.98
78383;BME280;67668;52.294;4.692;2023-05-01T01:48:01;101774.19;;;13.60;56.59
78383;BME280;67668;52.294;4.692;2023-05-01T01:50:30;101770.69;;;13.60;56.38
78383;BME280;67668;52.294;4.692;2023-05-01T01:52:59;101769.03;;;13.59;56.91
78383;BME280;67668;52.294;4.692;2023-05-01T01:55:28;101764.69;;;13.58;56.81
78383;BME280;67668;52.294;4.692;2023-05-01T01:57:55;101763.16;;;13.55;55.97
78383;BME280;67668;52.294;4.692;2023-05-01T02:00:23;101760.78;;;13.52;56.93
78383;BME280;67668;52.294;4.692;2023-05-01T02:02:49;101758.25;;;13.51;56.33
78383;BME280;67668;52.294;4.692;2023-05-01T02:05:16;101748.56;;;13.50;56.92
78383;BME280;67668;52.294;4.692;2023-05-01T02:07:45;101746.06;;;13.48;57.23
78383;BME280;67668;52.294;4.692;2023-05-01T02:10:12;101744.53;;;13.45;56.07
78383;BME280;67668;52.294;4.692;2023-05-01T02:12:40;101740.19;;;13.44;56.95
78383;BME280;67668;52.294;4.692;2023-05-01T02:15:09;101735.72;;;13.45;57.15
78383;BME280;67668;52.294;4.692;2023-05-01T02:17:36;101724.34;;;13.43;56.60
78383;BME280;67668;52.294;4.692;2023-05-01T02:20:03;101736.00;;;13.42;56.96
78383;BME280;67668;52.294;4.692;2023-05-01T02:22:31;101726.16;;;13.42;57.09
78383;BME280;67668;52.294;4.692;2023-05-01T02:24:57;101725.47;;;13.40;57.76
78383;BME280;67668;52.294;4.692;2023-05-01T02:27:35;101728.97;;;13.41;57.82
78383;BME280;67668;52.294;4.692;2023-05-01T02:30:02;101739.63;;;13.41;57.75
78383;BME280;67668;52.294;4.692;2023-05-01T02:32:29;101743.41;;;13.38;57.27
78383;BME280;67668;52.294;4.692;2023-05-01T02:34:56;101746.19;;;13.37;57.50
78383;BME280;67668;52.294;4.692;2023-05-01T02:37:22;101740.84;;;13.37;58.17
78383;BME280;67668;52.294;4.692;2023-05-01T02:39:48;101731.06;;;13.37;58.61
78383;BME280;67668;52.294;4.692;2023-05-01T02:42:14;101723.94;;;13.38;58.62
78383;BME280;67668;52.294;4.692;2023-05-01T02:44:54;101730.91;;;13.39;58.79
78383;BME280;67668;52.294;4.692;2023-05-01T02:47:21;101732.59;;;13.40;58.74
78383;BME280;67668;52.294;4.692;2023-05-01T02:49:50;101730.09;;;13.38;59.32
78383;BME280;67668;52.294;4.692;2023-05-01T02:52:18;101728.41;;;13.37;59.45
78383;BME280;67668;52.294;4.692;2023-05-01T02:54:44;101721.41;;;13.36;59.06
78383;BME280;67668;52.294;4.692;2023-05-01T02:57:10;101715.25;;;13.36;59.33
78383;BME280;67668;52.294;4.692;2023-05-01T02:59:36;101707.41;;;13.34;59.37
78383;BME280;67668;52.294;4.692;2023-05-01T03:02:01;101715.53;;;13.33;59.39
78383;BME280;67668;52.294;4.692;2023-05-01T03:04:27;101708.53;;;13.32;59.47
78383;BME280;67668;52.294;4.692;2023-05-01T03:06:53;101709.63;;;13.29;58.35
78383;BME280;67668;52.294;4.692;2023-05-01T03:09:20;101695.09;;;13.24;58.99
78383;BME280;67668;52.294;4.692;2023-05-01T03:11:45;101693.28;;;13.24;59.21
78383;BME280;67668;52.294;4.692;2023-05-01T03:14:11;101695.09;;;13.24;59.04
78383;BME280;67668;52.294;4.692;2023-05-01T03:16:36;101695.38;;;13.21;58.86
78383;BME280;67668;52.294;4.692;2023-05-01T03:19:02;101693.66;;;13.20;58.98
78383;BME280;67668;52.294;4.692;2023-05-01T03:21:28;101691.16;;;13.18;59.10
78383;BME280;67668;52.294;4.692;2023-05-01T03:23:53;101685.13;;;13.16;58.41
78383;BME280;67668;52.294;4.692;2023-05-01T03:26:19;101681.78;;;13.14;58.99
78383;BME280;67668;52.294;4.692;2023-05-01T03:28:44;101678.44;;;13.12;59.32
78383;BME280;67668;52.294;4.692;2023-05-01T03:31:10;101683.88;;;13.11;59.33
78383;BME280;67668;52.294;4.692;2023-05-01T03:33:36;101677.72;;;13.10;59.52
78383;BME280;67668;52.294;4.692;2023-05-01T03:36:03;101668.16;;;13.08;60.35
78383;BME280;67668;52.294;4.692;2023-05-01T03:38:31;101669.03;;;13.08;60.14
78383;BME280;67668;52.294;4.692;2023-05-01T03:40:58;101668.28;;;13.06;60.28
78383;BME280;67668;52.294;4.692;2023-05-01T03:43:25;101662.16;;;13.06;60.03
78383;BME280;67668;52.294;4.692;2023-05-01T03:45:51;101662.28;;;13.04;60.31
78383;BME280;67668;52.294;4.692;2023-05-01T03:48:19;101661.59;;;13.02;59.86
78383;BME280;67668;52.294;4.692;2023-05-01T03:50:44;101656.41;;;13.01;59.75
78383;BME280;67668;52.294;4.692;2023-05-01T03:53:11;101655.72;;;12.99;59.76
78383;BME280;67668;52.294;4.692;2023-05-01T03:55:43;101662.97;;;12.96;60.05
78383;BME280;67668;52.294;4.692;2023-05-01T03:58:09;101650.81;;;12.94;60.26
78383;BME280;67668;52.294;4.692;2023-05-01T04:00:35;101654.44;;;12.93;60.20
78383;BME280;67668;52.294;4.692;2023-05-01T04:03:02;101657.25;;;12.91;60.33
78383;BME280;67668;52.294;4.692;2023-05-01T04:05:28;101660.00;;;12.90;60.55
78383;BME280;67668;52.294;4.692;2023-05-01T04:07:53;101661.00;;;12.89;60.69
78383;BME280;67668;52.294;4.692;2023-05-01T04:10:19;101654.13;;;12.86;60.34
78383;BME280;67668;52.294;4.692;2023-05-01T04:12:44;101652.47;;;12.85;60.36
78383;BME280;67668;52.294;4.692;2023-05-01T04:15:10;101652.75;;;12.82;60.64
78383;BME280;67668;52.294;4.692;2023-05-01T04:17:35;101658.19;;;12.81;60.46
78383;BME280;67668;52.294;4.692;2023-05-01T04:20:02;101658.31;;;12.79;60.11
78383;BME280;67668;52.294;4.692;2023-05-01T04:22:29;101656.78;;;12.77;60.70
78383;BME280;67668;52.294;4.692;2023-05-01T04:24:55;101650.78;;;12.75;60.16
78383;BME280;67668;52.294;4.692;2023-05-01T04:27:21;101653.53;;;12.73;60.68
78383;BME280;67668;52.294;4.692;2023-05-01T04:29:46;101649.22;;;12.72;60.55
78383;BME280;67668;52.294;4.692;2023-05-01T04:32:12;101649.34;;;12.71;60.70
78383;BME280;67668;52.294;4.692;2023-05-01T04:34:37;101646.84;;;12.69;61.02
78383;BME280;67668;52.294;4.692;2023-05-01T04:37:03;101652.16;;;12.69;61.05
78383;BME280;67668;52.294;4.692;2023-05-01T04:39:31;101651.44;;;12.67;60.92
78383;BME280;67668;52.294;4.692;2023-05-01T04:41:56;101652.41;;;12.66;61.33
78383;BME280;67668;52.294;4.692;2023-05-01T04:44:22;101642.78;;;12.65;61.14
78383;BME280;67668;52.294;4.692;2023-05-01T04:46:47;101640.13;;;12.65;61.56
78383;BME280;67668;52.294;4.692;2023-05-01T04:49:12;101638.44;;;12.64;61.58
78383;BME280;67668;52.294;4.692;2023-05-01T04:51:38;101639.56;;;12.62;61.29
78383;BME280;67668;52.294;4.692;2023-05-01T04:54:04;101637.75;;;12.62;61.82
78383;BME280;67668;52.294;4.692;2023-05-01T04:56:29;101639.56;;;12.62;61.62
78383;BME280;67668;52.294;4.692;2023-05-01T04:58:56;101631.59;;;12.62;61.86
78383;BME280;67668;52.294;4.692;2023-05-01T05:01:21;101630.72;;;12.61;61.90
78383;BME280;67668;52.294;4.692;2023-05-01T05:03:46;101631.69;;;12.60;62.19
78383;BME280;67668;52.294;4.692;2023-05-01T05:06:12;101639.66;;;12.60;62.32
78383;BME280;67668;52.294;4.692;2023-05-01T05:08:37;101638.69;;;12.61;62.38
78383;BME280;67668;52.294;4.692;2023-05-01T05:11:03;101639.66;;;12.60;62.16
78383;BME280;67668;52.294;4.692;2023-05-01T05:13:28;101642.31;;;12.60;62.04
78383;BME280;67668;52.294;4.692;2023-05-01T05:15:53;101630.84;;;12.60;62.36
78383;BME280;67668;52.294;4.692;2023-05-01T05:18:20;101637.00;;;12.60;62.02
78383;BME280;67668;52.294;4.692;2023-05-01T05:20:46;101636.16;;;12.60;62.00
78383;BME280;67668;52.294;4.692;2023-05-01T05:23:12;101633.66;;;12.58;60.66
78383;BME280;67668;52.294;4.692;2023-05-01T05:25:37;101644.28;;;12.58;59.61
78383;BME280;67668;52.294;4.692;2023-05-01T05:28:03;101642.47;;;12.59;60.85
78383;BME280;67668;52.294;4.692;2023-05-01T05:30:30;101636.31;;;12.58;61.16
78383;BME280;67668;52.294;4.692;2023-05-01T05:32:57;101633.66;;;12.58;60.63
78383;BME280;67668;52.294;4.692;2023-05-01T05:35:22;101637.28;;;12.57;60.62
78383;BME280;67668;52.294;4.692;2023-05-01T05:37:47;101638.97;;;12.58;60.88
78383;BME280;67668;52.294;4.692;2023-05-01T05:40:13;101633.78;;;12.57;59.55
78383;BME280;67668;52.294;4.692;2023-05-01T05:42:38;101631.97;;;12.57;59.77
78383;BME280;67668;52.294;4.692;2023-05-01T05:45:04;101632.81;;;12.58;60.16
78383;BME280;67668;52.294;4.692;2023-05-01T05:47:31;101635.34;;;12.59;60.04
78383;BME280;67668;52.294;4.692;2023-05-01T05:49:56;101635.34;;;12.59;59.73
78383;BME280;67668;52.294;4.692;2023-05-01T05:52:22;101630.84;;;12.60;59.78
78383;BME280;67668;52.294;4.692;2023-05-01T05:54:47;101633.50;;;12.60;60.05
78383;BME280;67668;52.294;4.692;2023-05-01T05:57:13;101625.53;;;12.60;59.00
78383;BME280;67668;52.294;4.692;2023-05-01T05:59:38;101621.09;;;12.60;58.54
78383;BME280;67668;52.294;4.692;2023-05-01T06:02:04;101629.03;;;12.60;57.64
78383;BME280;67668;52.294;4.692;2023-05-01T06:04:29;101626.38;;;12.60;58.27
78383;BME280;67668;52.294;4.692;2023-05-01T06:06:55;101628.19;;;12.60;57.22
78383;BME280;67668;52.294;4.692;2023-05-01T06:09:21;101622.78;;;12.61;58.75
78383;BME280;67668;52.294;4.692;2023-05-01T06:11:46;101619.00;;;12.64;58.21
78383;BME280;67668;52.294;4.692;2023-05-01T06:14:12;101624.19;;;12.65;59.10
78383;BME280;67668;52.294;4.692;2023-05-01T06:16:38;101622.38;;;12.66;59.04
78383;BME280;67668;52.294;4.692;2023-05-01T06:19:03;101621.53;;;12.65;58.48
78383;BME280;67668;52.294;4.692;2023-05-01T06:21:29;101624.19;;;12.65;58.81
78383;BME280;67668;52.294;4.692;2023-05-01T06:23:56;101620.53;;;12.66;58.21
78383;BME280;67668;52.294;4.692;2023-05-01T06:26:23;101620.53;;;12.66;58.92
78383;BME280;67668;52.294;4.692;2023-05-01T06:28:48;101623.91;;;12.68;58.63
78383;BME280;67668;52.294;4.692;2023-05-01T06:31:15;101625.59;;;12.69;59.05
78383;BME280;67668;52.294;4.692;2023-05-01T06:33:40;101618.59;;;12.68;56.59
78383;BME280;67668;52.294;4.692;2023-05-01T06:36:06;101618.59;;;12.68;58.38
78383;BME280;67668;52.294;4.692;2023-05-01T06:38:31;101618.44;;;12.70;58.07
78383;BME280;67668;52.294;4.692;2023-05-01T06:40:57;101626.28;;;12.71;58.60
78383;BME280;67668;52.294;4.692;2023-05-01T06:43:23;101620.81;;;12.73;57.37
78383;BME280;67668;52.294;4.692;2023-05-01T06:45:52;101614.53;;;12.74;58.57
78383;BME280;67668;52.294;4.692;2023-05-01T06:48:17;101617.78;;;12.77;58.46
78383;BME280;67668;52.294;4.692;2023-05-01T06:50:43;101616.81;;;12.78;58.33
78383;BME280;67668;52.294;4.692;2023-05-01T06:53:09;101621.00;;;12.81;58.95
78383;BME280;67668;52.294;4.692;2023-05-01T06:55:34;101620.88;;;12.82;57.82
78383;BME280;67668;52.294;4.692;2023-05-01T06:58:00;101622.25;;;12.86;58.64
78383;BME280;67668;52.294;4.692;2023-05-01T07:00:25;101616.66;;;12.89;59.03
78383;BME280;67668;52.294;4.692;2023-05-01T07:02:51;101611.09;;;12.92;58.56
78383;BME280;67668;52.294;4.692;2023-05-01T07:05:17;101613.59;;;12.94;57.88
78383;BME280;67668;52.294;4.692;2023-05-01T07:07:42;101612.63;;;12.95;58.57
78383;BME280;67668;52.294;4.692;2023-05-01T07:10:08;101608.00;;;12.97;58.47
78383;BME280;67668;52.294;4.692;2023-05-01T07:12:34;101609.53;;;13.00;57.80
78383;BME280;67668;52.294;4.692;2023-05-01T07:14:59;101615.44;;;13.03;57.75
78383;BME280;67668;52.294;4.692;2023-05-01T07:17:25;101618.66;;;13.07;58.18
78383;BME280;67668;52.294;4.692;2023-05-01T07:19:50;101612.25;;;13.09;58.69
78383;BME280;67668;52.294;4.692;2023-05-01T07:22:16;101611.16;;;13.12;58.80
78383;BME280;67668;52.294;4.692;2023-05-01T07:24:42;101611.00;;;13.13;58.35
78383;BME280;67668;52.294;4.692;2023-05-01T07:27:08;101612.41;;;13.17;57.12
78383;BME280;67668;52.294;4.692;2023-05-01T07:29:36;101607.78;;;13.19;57.69
78383;BME280;67668;52.294;4.692;2023-05-01T07:32:02;101612.84;;;13.22;57.92
78383;BME280;67668;52.294;4.692;2023-05-01T07:34:29;101615.06;;;13.27;58.30
78383;BME280;67668;52.294;4.692;2023-05-01T07:36:55;101616.47;;;13.31;57.83
78383;BME280;67668;52.294;4.692;2023-05-01T07:39:21;101620.66;;;13.33;58.02
78383;BME280;67668;52.294;4.692;2023-05-01T07:41:46;101614.91;;;13.38;57.31
78383;BME280;67668;52.294;4.692;2023-05-01T07:44:12;101619.97;;;13.41;58.55
78383;BME280;67668;52.294;4.692;2023-05-01T07:46:48;101617.00;;;13.44;58.68
78383;BME280;67668;52.294;4.692;2023-05-01T07:49:13;101617.69;;;13.46;58.98
78383;BME280;67668;52.294;4.692;2023-05-01T07:51:38;101619.09;;;13.50;58.40
78383;BME280;67668;52.294;4.692;2023-05-01T07:54:04;101609.88;;;13.54;58.19
78383;BME280;67668;52.294;4.692;2023-05-01T07:56:30;101613.94;;;13.58;58.07
78383;BME280;67668;52.294;4.692;2023-05-01T07:58:56;101605.66;;;13.61;58.36
78383;BME280;67668;52.294;4.692;2023-05-01T08:01:22;101620.34;;;13.65;58.02
78383;BME280;67668;52.294;4.692;2023-05-01T08:03:48;101608.72;;;13.66;58.47
78383;BME280;67668;52.294;4.692;2023-05-01T08:06:14;101607.44;;;13.70;58.14
78383;BME280;67668;52.294;4.692;2023-05-01T08:08:39;101607.88;;;13.75;57.27
78383;BME280;67668;52.294;4.692;2023-05-01T08:11:05;101606.44;;;13.81;57.66
78383;BME280;67668;52.294;4.692;2023-05-01T08:13:30;101607.69;;;13.86;58.17
78383;BME280;67668;52.294;4.692;2023-05-01T08:16:00;101614.41;;;13.90;56.60
78383;BME280;67668;52.294;4.692;2023-05-01T08:18:25;101620.28;;;13.94;55.87
78383;BME280;67668;52.294;4.692;2023-05-01T08:20:51;101629.78;;;13.96;55.79
78383;BME280;67668;52.294;4.692;2023-05-01T08:23:16;101622.53;;;13.98;55.40
78383;BME280;67668;52.294;4.692;2023-05-01T08:25:42;101624.59;;;14.05;55.90
78383;BME280;67668;52.294;4.692;2023-05-01T08:28:16;101617.84;;;14.10;55.31
78383;BME280;67668;52.294;4.692;2023-05-01T08:30:43;101622.19;;;14.11;55.19
78383;BME280;67668;52.294;4.692;2023-05-01T08:33:08;101619.25;;;14.14;55.26
78383;BME280;67668;52.294;4.692;2023-05-01T08:35:34;101620.47;;;14.20;55.63
78383;BME280;67668;52.294;4.692;2023-05-01T08:37:59;101612.91;;;14.25;55.06
78383;BME280;67668;52.294;4.692;2023-05-01T08:40:30;101615.09;;;14.29;56.45
78383;BME280;67668;52.294;4.692;2023-05-01T08:42:57;101606.56;;;14.35;55.54
78383;BME280;67668;52.294;4.692;2023-05-01T08:45:24;101611.44;;;14.40;55.40
78383;BME280;67668;52.294;4.692;2023-05-01T08:47:51;101616.34;;;14.44;55.27
78383;BME280;67668;52.294;4.692;2023-05-01T08:50:18;101625.44;;;14.52;55.47
78383;BME280;67668;52.294;4.692;2023-05-01T08:52:46;101620.34;;;14.58;55.34
78383;BME280;67668;52.294;4.692;2023-05-01T08:55:14;101625.44;;;14.69;56.58
78383;BME280;67668;52.294;4.692;2023-05-01T08:57:47;101625.25;;;14.80;55.62
78383;BME280;67668;52.294;4.692;2023-05-01T09:00:19;101629.69;;;14.89;55.43
78383;BME280;67668;52.294;4.692;2023-05-01T09:02:48;101624.97;;;15.01;56.69
78383;BME280;67668;52.294;4.692;2023-05-01T09:05:16;101629.94;;;15.14;56.53
78383;BME280;67668;52.294;4.692;2023-05-01T09:07:43;101623.81;;;15.21;55.24
78383;BME280;67668;52.294;4.692;2023-05-01T09:10:15;101629.91;;;15.31;56.04
78383;BME280;67668;52.294;4.692;2023-05-01T09:12:43;101633.34;;;15.41;56.04
78383;BME280;67668;52.294;4.692;2023-05-01T09:15:11;101630.47;;;15.52;56.54
78383;BME280;67668;52.294;4.692;2023-05-01T09:17:36;101636.41;;;15.64;55.21
78383;BME280;67668;52.294;4.692;2023-05-01T09:20:03;101633.78;;;15.72;54.49
78383;BME280;67668;52.294;4.692;2023-05-01T09:22:31;101640.50;;;15.76;53.89
78383;BME280;67668;52.294;4.692;2023-05-01T09:24:56;101631.88;;;15.82;53.19
78383;BME280;67668;52.294;4.692;2023-05-01T09:27:24;101643.16;;;15.94;53.19
78383;BME280;67668;52.294;4.692;2023-05-01T09:29:50;101636.00;;;16.02;53.29
78383;BME280;67668;52.294;4.692;2023-05-01T09:32:21;101647.56;;;16.11;53.20
78383;BME280;67668;52.294;4.692;2023-05-01T09:34:50;101641.97;;;16.22;52.79
78383;BME280;67668;52.294;4.692;2023-05-01T09:42:38;101652.97;;;16.53;50.58
78383;BME280;67668;52.294;4.692;2023-05-01T09:45:11;101647.88;;;16.60;50.42
78383;BME280;67668;52.294;4.692;2023-05-01T09:47:37;101643.69;;;16.65;49.64
78383;BME280;67668;52.294;4.692;2023-05-01T09:50:04;101648.38;;;16.71;48.21
78383;BME280;67668;52.294;4.692;2023-05-01T09:52:29;101649.41;;;16.78;49.34
78383;BME280;67668;52.294;4.692;2023-05-01T09:55:17;101656.78;;;16.84;49.12
78383;BME280;67668;52.294;4.692;2023-05-01T09:57:44;101661.47;;;16.90;48.86
78383;BME280;67668;52.294;4.692;2023-05-01T10:00:11;101662.69;;;16.96;47.52
78383;BME280;67668;52.294;4.692;2023-05-01T10:02:39;101663.19;;;16.99;46.08
78383;BME280;67668;52.294;4.692;2023-05-01T10:05:05;101671.56;;;17.04;47.95
78383;BME280;67668;52.294;4.692;2023-05-01T10:07:31;101672.59;;;17.12;48.42
78383;BME280;67668;52.294;4.692;2023-05-01T10:09:57;101669.09;;;17.19;48.08
78383;BME280;67668;52.294;4.692;2023-05-01T10:12:26;101672.94;;;17.25;47.05
78383;BME280;67668;52.294;4.692;2023-05-01T10:14:54;101676.28;;;17.27;46.93
78383;BME280;67668;52.294;4.692;2023-05-01T10:17:20;101671.94;;;17.34;46.48
78383;BME280;67668;52.294;4.692;2023-05-01T10:19:46;101671.94;;;17.34;46.04
78383;BME280;67668;52.294;4.692;2023-05-01T10:22:12;101691.03;;;17.39;46.58
78383;BME280;67668;52.294;4.692;2023-05-01T10:24:38;101678.50;;;17.39;47.68
78383;BME280;67668;52.294;4.692;2023-05-01T10:27:06;101692.22;;;17.36;46.64
78383;BME280;67668;52.294;4.692;2023-05-01T10:29:36;101690.53;;;17.35;48.35
78383;BME280;67668;52.294;4.692;2023-05-01T10:32:05;101692.84;;;17.30;49.49
78383;BME280;67668;52.294;4.692;2023-05-01T10:34:37;101700.88;;;17.30;50.71
78383;BME280;67668;52.294;4.692;2023-05-01T10:37:33;101700.69;;;17.24;50.73
78383;BME280;67668;52.294;4.692;2023-05-01T10:45:54;101708.53;;;17.17;53.27
78383;BME280;67668;52.294;4.692;2023-05-01T10:51:10;101709.19;;;17.11;53.62
78383;BME280;67668;52.294;4.692;2023-05-01T10:53:44;101715.56;;;17.10;54.01
78383;BME280;67668;52.294;4.692;2023-05-01T10:58:55;101721.38;;;17.05;55.34
78383;BME280;67668;52.294;4.692;2023-05-01T11:04:03;101713.00;;;17.00;55.13
78383;BME280;67668;52.294;4.692;2023-05-01T11:06:30;101714.50;;;16.95;55.34
78383;BME280;67668;52.294;4.692;2023-05-01T11:08:55;101709.16;;;16.95;56.26
78383;BME280;67668;52.294;4.692;2023-05-01T11:13:59;101699.75;;;16.91;56.71
78383;BME280;67668;52.294;4.692;2023-05-01T11:19:08;101701.91;;;16.87;57.50
78383;BME280;67668;52.294;4.692;2023-05-01T11:21:37;101696.56;;;16.87;57.83
78383;BME280;67668;52.294;4.692;2023-05-01T11:24:06;101703.94;;;16.85;57.91
78383;BME280;67668;52.294;4.692;2023-05-01T11:26:36;101704.25;;;16.82;58.20
78383;BME280;67668;52.294;4.692;2023-05-01T11:29:03;101701.72;;;16.81;58.34
78383;BME280;67668;52.294;4.692;2023-05-01T11:31:30;101698.38;;;16.79;58.62
78383;BME280;67668;52.294;4.692;2023-05-01T11:33:56;101695.06;;;16.77;58.66
78383;BME280;67668;52.294;4.692;2023-05-01T11:36:21;101691.69;;;16.75;58.64
78383;BME280;67668;52.294;4.692;2023-05-01T11:38:55;101689.19;;;16.73;58.88
78383;BME280;67668;52.294;4.692;2023-05-01T11:41:22;101686.66;;;16.72;58.89
78383;BME280;67668;52.294;4.692;2023-05-01T11:43:49;101692.19;;;16.70;59.55
78383;BME280;67668;52.294;4.692;2023-05-01T11:46:27;101689.81;;;16.67;59.03
78383;BME280;67668;52.294;4.692;2023-05-01T11:48:59;101694.34;;;16.67;59.57
78383;BME280;67668;52.294;4.692;2023-05-01T11:51:29;101683.97;;;16.64;59.23
78383;BME280;67668;52.294;4.692;2023-05-01T11:54:00;101678.63;;;16.64;59.77
78383;BME280;67668;52.294;4.692;2023-05-01T11:56:26;101693.81;;;16.63;59.82
78383;BME280;67668;52.294;4.692;2023-05-01T11:58:53;101690.44;;;16.61;60.25
78383;BME280;67668;52.294;4.692;2023-05-01T12:01:19;101694.94;;;16.61;60.32
78383;BME280;67668;52.294;4.692;2023-05-01T12:03:44;101687.97;;;16.60;60.43
78383;BME280;67668;52.294;4.692;2023-05-01T12:06:10;101685.44;;;16.58;60.59
78383;BME280;67668;52.294;4.692;2023-05-01T12:08:42;101688.09;;;16.58;60.93
78383;BME280;67668;52.294;4.692;2023-05-01T12:11:07;101685.44;;;16.58;60.75
78383;BME280;67668;52.294;4.692;2023-05-01T12:13:34;101690.63;;;16.60;61.03
78383;BME280;67668;52.294;4.692;2023-05-01T12:15:59;101687.13;;;16.59;60.81
78383;BME280;67668;52.294;4.692;2023-05-01T12:18:25;101682.44;;;16.61;61.03
78383;BME280;67668;52.294;4.692;2023-05-01T12:20:52;101692.81;;;16.64;61.02
78383;BME280;67668;52.294;4.692;2023-05-01T12:23:29;101687.31;;;16.66;61.44
78383;BME280;67668;52.294;4.692;2023-05-01T12:25:55;101683.47;;;16.68;61.21
78383;BME280;67668;52.294;4.692;2023-05-01T12:28:20;101675.13;;;16.71;62.65
78383;BME280;67668;52.294;4.692;2023-05-01T12:30:47;101675.31;;;16.78;61.95
78383;BME280;67668;52.294;4.692;2023-05-01T12:33:14;101678.19;;;16.84;64.82
78383;BME280;67668;52.294;4.692;2023-05-01T12:35:41;101675.53;;;16.92;64.43
78383;BME280;67668;52.294;4.692;2023-05-01T12:38:22;101679.91;;;17.01;62.88
78383;BME280;67668;52.294;4.692;2023-05-01T12:40:58;101679.94;;;17.10;62.73
78383;BME280;67668;52.294;4.692;2023-05-01T12:43:34;101683.13;;;17.21;62.35
78383;BME280;67668;52.294;4.692;2023-05-01T12:46:01;101675.13;;;17.29;61.41
78383;BME280;67668;52.294;4.692;2023-05-01T12:48:27;101685.50;;;17.40;62.15
78383;BME280;67668;52.294;4.692;2023-05-01T12:50:53;101679.00;;;17.51;61.83
78383;BME280;67668;52.294;4.692;2023-05-01T12:53:23;101677.88;;;17.62;61.20
78383;BME280;67668;52.294;4.692;2023-05-01T12:55:51;101670.16;;;17.67;59.75
78383;BME280;67668;52.294;4.692;2023-05-01T12:58:17;101679.22;;;17.82;56.69
78383;BME280;67668;52.294;4.692;2023-05-01T13:00:53;101677.53;;;17.89;57.18
78383;BME280;67668;52.294;4.692;2023-05-01T13:03:26;101684.19;;;18.01;57.18
78383;BME280;67668;52.294;4.692;2023-05-01T13:05:56;101681.03;;;18.05;55.76
78383;BME280;67668;52.294;4.692;2023-05-01T13:08:36;101686.34;;;18.14;56.05
78383;BME280;67668;52.294;4.692;2023-05-01T13:11:15;101683.66;;;18.22;55.53
78383;BME280;67668;52.294;4.692;2023-05-01T13:13:42;101675.59;;;18.30;54.49
78383;BME280;67668;52.294;4.692;2023-05-01T13:16:17;101686.66;;;18.35;53.83
78383;BME280;67668;52.294;4.692;2023-05-01T13:21:10;101681.59;;;18.48;53.02
78383;BME280;67668;52.294;4.692;2023-05-01T13:23:37;101683.97;;;18.51;53.39
78383;BME280;67668;52.294;4.692;2023-05-01T13:26:04;101679.94;;;18.55;53.77
78383;BME280;67668;52.294;4.692;2023-05-01T13:28:32;101682.75;;;18.53;53.15
78383;BME280;67668;52.294;4.692;2023-05-01T13:30:58;101680.75;;;18.55;53.38
78383;BME280;67668;52.294;4.692;2023-05-01T13:33:23;101683.09;;;18.58;52.96
78383;BME280;67668;52.294;4.692;2023-05-01T13:35:49;101685.28;;;18.55;51.45